Airfield :
LOGIN :

Register | Disclaimer

   EN    FR    IT 

 










Legend :    VFR   Marginal VFR   IFR   Intensive IFR   Very Intensive IFR
Visi :
Ceiling :
>= 8 km
>= 3000ft
5 to 8 km
1000 to 3000 ft
1500m to 5 km
500 to 1000 ft
800 to 1500m
200 to 500 ft
< 800m
< 200 ft
Symbols :   Thunderstorms  Fog  Heavy snow  Heavy precipitations  Wind > 20 kt
SIGMETs :     Misc.  Thunderstorms  Icing  Turbulence  Mountain Waves  Volcanic Ashes







- Airport Elevation : 39 ft
- IATA code : ANR


EBAW - Anvers / Antwerpen Deurne

CURRENT METAR :
  • 260920Z 32008KT 9999 SCT024 BKN048 09/04 Q1033 NOSIG

EXPIRED METARs :
  • 260850Z 32010KT 9999 FEW022 BKN027 08/04 Q1033 NOSIG
  • 260820Z 31009KT 280V340 9999 FEW022 BKN027 08/03 Q1033 NOSIG
  • 260750Z 34008KT 9999 FEW020 BKN027 08/03 Q1033 NOSIG
  • 260720Z 35008KT 310V030 9999 SCT020 08/04 Q1033 NOSIG
  • 260650Z 33007KT 9999 FEW030 07/03 Q1033 NOSIG

TAF TAF EBAW
Valid from the 26 at 09:00 until the 26 at 18:00 UTC


260810Z 2609/2618 32007KT 9999 BKN025
No reported NOTAMs for that airfield.



MET'MAP, your aeronautical weather chart ! - Copyright ORBIFLY December 2007 - Disclaimer

ORBIFLY MET'MAP TEAM :

Programming & Development : Alexandra Zaïnal
Concept & Development : Baudouin d'Aumeries
Co-Development & Prog : Marc-Olivier Méhu
Technical & hardware support : Manuel Goepfert

Contact : metmap@orbifly.com




SOURCES & CREDITS :

   NOAA